French Creek, West Virginia
Current Conditions -  °F | °C
As of 8:15 AM on Tuesday 21 Oct 2014 (Local Time) from KW22 Reporting Station
Overcast Overcast  
Wind Chill: 10°   Ceiling: 1000
Heat Index: 10°   Visibility: 10mi
Dew Point:   Wind: 0mph
Humidity: 94%   Direction: NA
Pressure: 29.9"   Gusts: NA
Location:  38.89°N, 80.3°W
Report Text: KW22 211215Z AUTO 00000KT 10SM OVC010 10/09 A2990 RMK AO2
Loading
Personal Weather Stations






























Interactive Weather Map
Tropical Storm Tracking
New forecast layout! Learn more

10-Day Weather Forecast

Advertisements
Track Severe Weather on mobile